Time;durP1;ratioP1;P1;durP2;ratioP2;P2;SDS_P1;SDS_P2;PMS_P1;PMS_P2;Temp;Humidity;BMP_temperature;BMP_pressure;BME280_temperature;BME280_humidity;BME280_pressure;Samples;Min_cycle;Max_cycle;Signal;HPM_P1;HPM_P2
2023/12/23 06:01:48;;;;;;;1.83;0.80;;;;;;;;;;5661565;23;20501;-78
2023/12/23 06:04:13;;;;;;;2.53;1.10;;;;;;;;;;4977331;28;20464;-79
2023/12/23 06:06:39;;;;;;;1.33;0.80;;;;;;;;;;4977886;28;20411;-78
2023/12/23 06:09:06;;;;;;;2.00;0.80;;;;;;;;;;4978361;28;20408;-78
2023/12/23 06:11:32;;;;;;;1.03;0.97;;;;;;;;;;4978040;28;20435;-78
2023/12/23 06:13:58;;;;;;;3.80;0.80;;;;;;;;;;4977739;28;20422;-78
2023/12/23 06:16:24;;;;;;;0.83;0.83;;;;;;;;;;4984269;28;20907;-81
2023/12/23 06:18:50;;;;;;;1.27;0.97;;;;;;;;;;4985378;28;20968;-81
2023/12/23 06:21:16;;;;;;;0.80;0.70;;;;;;;;;;4982735;28;20503;-81
2023/12/23 06:23:42;;;;;;;1.80;0.83;;;;;;;;;;4991274;28;20432;-80
2023/12/23 06:26:10;;;;;;;0.90;0.80;;;;;;;;;;4967513;28;20423;-81
2023/12/23 06:28:35;;;;;;;0.80;0.70;;;;;;;;;;4965049;29;20416;-81
2023/12/23 06:31:02;;;;;;;1.10;0.70;;;;;;;;;;4964442;28;20508;-81
2023/12/23 06:33:28;;;;;;;0.77;0.70;;;;;;;;;;4964041;28;20445;-81
2023/12/23 06:35:54;;;;;;;1.43;0.70;;;;;;;;;;4961522;28;20425;-82
2023/12/23 06:38:20;;;;;;;0.87;0.77;;;;;;;;;;4961223;28;20519;-81
2023/12/23 06:40:46;;;;;;;3.17;0.80;;;;;;;;;;4962345;29;20445;-81
2023/12/23 06:43:12;;;;;;;0.70;0.60;;;;;;;;;;4965913;28;20420;-81
2023/12/23 06:45:38;;;;;;;0.87;0.70;;;;;;;;;;4964682;29;20460;-81
2023/12/23 06:48:04;;;;;;;2.87;0.80;;;;;;;;;;4962880;28;20440;-81
2023/12/23 06:50:30;;;;;;;0.90;0.80;;;;;;;;;;4962010;28;20532;-82
2023/12/23 06:52:56;;;;;;;1.67;0.90;;;;;;;;;;4968232;28;20458;-81
2023/12/23 06:55:21;;;;;;;2.73;0.80;;;;;;;;;;4979447;28;20420;-81
2023/12/23 06:57:48;;;;;;;1.00;0.80;;;;;;;;;;4975793;28;20481;-78
2023/12/23 07:00:15;;;;;;;1.53;0.90;;;;;;;;;;4977495;28;20412;-79
2023/12/23 07:02:40;;;;;;;0.90;0.80;;;;;;;;;;4977409;28;20439;-78
2023/12/23 07:05:06;;;;;;;0.80;0.70;;;;;;;;;;4976776;28;20469;-78
2023/12/23 07:07:32;;;;;;;3.87;0.93;;;;;;;;;;4976103;28;20895;-78
2023/12/23 07:09:59;;;;;;;0.97;0.90;;;;;;;;;;4976701;28;20418;-79
2023/12/23 07:12:25;;;;;;;0.80;0.60;;;;;;;;;;4977280;28;20470;-78
2023/12/23 07:14:51;;;;;;;0.97;0.90;;;;;;;;;;4975879;28;20420;-78
2023/12/23 07:17:17;;;;;;;1.10;0.70;;;;;;;;;;4976567;28;20427;-78
2023/12/23 07:19:43;;;;;;;0.87;0.77;;;;;;;;;;4975278;28;20455;-79
2023/12/23 07:22:09;;;;;;;0.90;0.80;;;;;;;;;;4960912;28;20476;-78
2023/12/23 07:24:35;;;;;;;0.80;0.70;;;;;;;;;;4959005;28;20464;-78
2023/12/23 07:27:04;;;;;;;1.37;1.30;;;;;;;;;;4959514;29;20469;-78
2023/12/23 07:29:30;;;;;;;0.90;0.80;;;;;;;;;;4957052;29;20490;-78
2023/12/23 07:31:55;;;;;;;1.20;0.90;;;;;;;;;;4956800;28;20508;-79
2023/12/23 07:34:21;;;;;;;5.77;0.80;;;;;;;;;;4955839;28;20413;-78
2023/12/23 07:36:47;;;;;;;5.43;1.10;;;;;;;;;;4954433;29;20904;-78
2023/12/23 07:39:14;;;;;;;0.90;0.80;;;;;;;;;;4955774;28;20787;-78
2023/12/23 07:41:40;;;;;;;1.80;0.97;;;;;;;;;;4955178;28;20752;-77
2023/12/23 07:44:06;;;;;;;1.27;0.80;;;;;;;;;;4955132;28;20523;-78
2023/12/23 07:46:32;;;;;;;0.70;0.70;;;;;;;;;;4954289;28;20421;-78
2023/12/23 07:48:58;;;;;;;0.90;0.80;;;;;;;;;;4966262;28;20431;-78
2023/12/23 07:51:24;;;;;;;1.40;0.73;;;;;;;;;;4979502;28;20440;-79
2023/12/23 07:53:50;;;;;;;1.73;0.90;;;;;;;;;;4975473;28;20455;-79
2023/12/23 07:56:16;;;;;;;3.60;0.80;;;;;;;;;;4974785;28;20408;-78
2023/12/23 07:58:42;;;;;;;5.97;1.07;;;;;;;;;;4974584;28;20404;-78
2023/12/23 08:01:08;;;;;;;0.73;0.70;;;;;;;;;;4975075;28;20464;-78
2023/12/23 08:03:34;;;;;;;2.20;1.20;;;;;;;;;;4993476;28;20435;-80
2023/12/23 08:06:00;;;;;;;0.90;0.90;;;;;;;;;;4998515;28;20438;-80
2023/12/23 08:08:26;;;;;;;0.80;0.80;;;;;;;;;;4998454;28;20447;-79
2023/12/23 08:10:54;;;;;;;1.33;0.87;;;;;;;;;;4984916;28;20845;-80
2023/12/23 08:13:20;;;;;;;0.90;0.80;;;;;;;;;;4985854;28;20420;-79
2023/12/23 08:15:46;;;;;;;0.97;0.70;;;;;;;;;;4982094;28;20516;-79
2023/12/23 08:18:12;;;;;;;0.83;0.73;;;;;;;;;;4979751;28;20522;-78
2023/12/23 08:20:38;;;;;;;2.10;0.70;;;;;;;;;;4977777;28;20464;-79
2023/12/23 08:23:04;;;;;;;1.63;0.90;;;;;;;;;;4980629;28;20488;-79
2023/12/23 08:25:30;;;;;;;0.80;0.80;;;;;;;;;;4980726;28;20459;-80
2023/12/23 08:27:56;;;;;;;0.83;0.80;;;;;;;;;;4987564;28;20429;-80
2023/12/23 08:30:22;;;;;;;2.83;0.90;;;;;;;;;;4959685;29;20927;-79
2023/12/23 08:32:48;;;;;;;0.90;0.80;;;;;;;;;;4958112;29;20417;-79
2023/12/23 08:35:15;;;;;;;0.77;0.70;;;;;;;;;;4959255;28;20435;-79
2023/12/23 08:37:41;;;;;;;0.80;0.70;;;;;;;;;;4958917;28;20416;-79
2023/12/23 08:40:08;;;;;;;0.80;0.70;;;;;;;;;;4962030;29;20404;-79
2023/12/23 08:42:34;;;;;;;2.33;1.33;;;;;;;;;;4967044;28;20460;-79
2023/12/23 08:45:00;;;;;;;1.20;0.83;;;;;;;;;;4968100;28;20467;-80
2023/12/23 08:47:26;;;;;;;0.73;0.70;;;;;;;;;;4977252;28;20522;-82
2023/12/23 08:49:52;;;;;;;0.80;0.63;;;;;;;;;;4979612;28;20431;-82
2023/12/23 08:52:18;;;;;;;0.80;0.70;;;;;;;;;;4976802;28;20439;-75
2023/12/23 08:54:44;;;;;;;0.80;0.70;;;;;;;;;;4985655;28;20411;-74
2023/12/23 08:57:10;;;;;;;0.97;0.80;;;;;;;;;;4976732;28;20914;-75
2023/12/23 08:59:36;;;;;;;0.60;0.60;;;;;;;;;;4977418;28;20407;-75
2023/12/23 09:02:03;;;;;;;0.80;0.70;;;;;;;;;;4978012;28;20455;-80
2023/12/23 09:04:29;;;;;;;0.73;0.63;;;;;;;;;;4978682;28;20494;-80
2023/12/23 09:06:57;;;;;;;0.80;0.70;;;;;;;;;;4980085;28;20426;-80
2023/12/23 09:09:23;;;;;;;0.60;0.60;;;;;;;;;;4980555;28;20414;-79
2023/12/23 09:11:49;;;;;;;0.77;0.70;;;;;;;;;;4978161;28;20427;-80
2023/12/23 09:14:16;;;;;;;0.70;0.60;;;;;;;;;;4980756;28;20474;-80
2023/12/23 09:16:42;;;;;;;1.13;0.70;;;;;;;;;;4979404;28;20927;-79
2023/12/23 09:19:08;;;;;;;1.63;0.70;;;;;;;;;;4985033;28;20427;-81
2023/12/23 09:21:34;;;;;;;0.73;0.67;;;;;;;;;;4985675;28;20444;-81
2023/12/23 09:24:00;;;;;;;5.50;0.70;;;;;;;;;;4978766;28;20463;-81
2023/12/23 09:26:26;;;;;;;0.80;0.73;;;;;;;;;;4985064;28;20411;-81
2023/12/23 09:28:52;;;;;;;0.80;0.70;;;;;;;;;;4993568;28;20419;-82
2023/12/23 09:31:18;;;;;;;0.93;0.83;;;;;;;;;;4978574;28;20427;-79
2023/12/23 09:33:44;;;;;;;0.90;0.70;;;;;;;;;;4977891;28;20408;-80
2023/12/23 09:36:11;;;;;;;0.80;0.70;;;;;;;;;;4978894;28;20499;-79
2023/12/23 09:38:37;;;;;;;1.00;0.60;;;;;;;;;;4969192;28;20452;-79
2023/12/23 09:41:03;;;;;;;0.80;0.70;;;;;;;;;;4956869;28;20571;-78
2023/12/23 09:43:29;;;;;;;1.30;0.77;;;;;;;;;;4957187;28;20772;-77
2023/12/23 09:45:56;;;;;;;1.27;0.70;;;;;;;;;;4959160;28;20460;-79
2023/12/23 09:48:23;;;;;;;0.80;0.70;;;;;;;;;;4958457;29;20787;-78
2023/12/23 09:50:49;;;;;;;0.77;0.67;;;;;;;;;;4955607;29;20591;-76
2023/12/23 09:53:18;;;;;;;0.80;0.70;;;;;;;;;;4956145;28;20412;-77
2023/12/23 09:55:45;;;;;;;0.77;0.70;;;;;;;;;;4957008;29;20911;-75
2023/12/23 09:58:13;;;;;;;4.53;0.90;;;;;;;;;;4957252;28;20776;-74
2023/12/23 10:00:39;;;;;;;4.10;0.70;;;;;;;;;;4956780;28;20911;-73
2023/12/23 10:03:04;;;;;;;0.80;0.70;;;;;;;;;;4955495;28;20448;-75
2023/12/23 10:05:31;;;;;;;0.80;0.70;;;;;;;;;;4956662;28;20518;-76
2023/12/23 10:07:57;;;;;;;1.00;0.90;;;;;;;;;;4974325;28;20416;-75
2023/12/23 10:10:24;;;;;;;0.70;0.60;;;;;;;;;;4975745;28;20919;-73
2023/12/23 10:12:50;;;;;;;0.63;0.63;;;;;;;;;;4975577;28;20412;-73
2023/12/23 10:15:16;;;;;;;1.23;0.60;;;;;;;;;;4975706;28;20499;-72
2023/12/23 10:17:42;;;;;;;1.70;0.70;;;;;;;;;;4975657;28;20891;-71
2023/12/23 10:20:11;;;;;;;1.30;0.60;;;;;;;;;;4975404;28;20828;-74
2023/12/23 10:22:37;;;;;;;0.90;0.80;;;;;;;;;;4975509;28;20920;-76
2023/12/23 10:25:03;;;;;;;1.43;0.70;;;;;;;;;;4975418;28;20468;-77
2023/12/23 10:27:31;;;;;;;0.80;0.70;;;;;;;;;;4974447;28;20926;-78
2023/12/23 10:30:00;;;;;;;3.17;0.70;;;;;;;;;;4974160;28;20416;-73
2023/12/23 10:32:27;;;;;;;1.13;0.73;;;;;;;;;;4975877;28;20442;-77
2023/12/23 10:35:03;;;;;;;0.80;0.70;;;;;;;;;;4965248;28;20424;-77
2023/12/23 10:37:29;;;;;;;1.00;0.70;;;;;;;;;;4956607;29;20413;-77
2023/12/23 10:40:02;;;;;;;0.80;0.70;;;;;;;;;;4958468;28;20495;-76
2023/12/23 10:42:30;;;;;;;1.17;0.93;;;;;;;;;;4958018;28;20443;-77
2023/12/23 10:44:56;;;;;;;0.80;0.70;;;;;;;;;;4957516;28;20460;-75
2023/12/23 10:47:23;;;;;;;0.80;0.70;;;;;;;;;;4971444;28;20906;-74
2023/12/23 10:49:49;;;;;;;0.83;0.73;;;;;;;;;;4975937;28;20455;-76
2023/12/23 10:52:15;;;;;;;1.00;0.90;;;;;;;;;;4974899;28;20443;-76
2023/12/23 10:54:42;;;;;;;1.33;0.80;;;;;;;;;;4976469;28;20507;-74
2023/12/23 10:57:09;;;;;;;0.70;0.60;;;;;;;;;;4975556;28;20455;-77
2023/12/23 10:59:35;;;;;;;1.63;0.70;;;;;;;;;;4975600;28;20419;-78
2023/12/23 11:02:05;;;;;;;1.00;0.90;;;;;;;;;;4974716;28;20517;-76
2023/12/23 11:04:31;;;;;;;3.00;1.33;;;;;;;;;;4975274;28;20646;-75
2023/12/23 11:06:58;;;;;;;0.60;0.50;;;;;;;;;;4973509;28;20419;-75
2023/12/23 11:09:24;;;;;;;0.70;0.60;;;;;;;;;;4968386;28;20507;-74
2023/12/23 11:11:50;;;;;;;0.80;0.70;;;;;;;;;;4974142;28;20542;-75
2023/12/23 11:14:16;;;;;;;0.70;0.60;;;;;;;;;;4975470;28;20427;-77
2023/12/23 11:16:43;;;;;;;0.80;0.70;;;;;;;;;;4972800;28;20777;-78
2023/12/23 11:19:09;;;;;;;0.80;0.70;;;;;;;;;;4971391;28;20423;-77
2023/12/23 11:21:35;;;;;;;0.77;0.67;;;;;;;;;;4975315;28;20451;-77
2023/12/23 11:24:02;;;;;;;0.70;0.60;;;;;;;;;;4973759;28;20507;-77
2023/12/23 11:26:37;;;;;;;1.27;0.70;;;;;;;;;;4972428;28;20417;-78
2023/12/23 11:29:07;;;;;;;0.87;0.80;;;;;;;;;;4970975;28;20412;-76
2023/12/23 11:31:33;;;;;;;2.00;0.60;;;;;;;;;;4975601;28;21024;-76
2023/12/23 11:33:59;;;;;;;0.70;0.60;;;;;;;;;;4973934;28;20427;-76
2023/12/23 11:36:26;;;;;;;0.70;0.70;;;;;;;;;;4971868;28;20431;-76
2023/12/23 11:38:52;;;;;;;0.70;0.60;;;;;;;;;;4975274;28;21082;-76
2023/12/23 11:41:19;;;;;;;0.70;0.60;;;;;;;;;;4969564;28;20444;-78
2023/12/23 11:43:45;;;;;;;0.70;0.60;;;;;;;;;;4967909;28;20420;-78
2023/12/23 11:46:12;;;;;;;0.70;0.60;;;;;;;;;;4975585;28;20442;-78
2023/12/23 11:48:38;;;;;;;0.70;0.60;;;;;;;;;;4974968;28;20458;-78
2023/12/23 11:51:06;;;;;;;2.10;0.90;;;;;;;;;;4974599;28;21153;-77
2023/12/23 11:53:32;;;;;;;0.73;0.60;;;;;;;;;;4974444;28;20415;-76
2023/12/23 11:55:59;;;;;;;1.53;0.80;;;;;;;;;;4974749;28;20423;-78
2023/12/23 11:58:25;;;;;;;5.13;0.90;;;;;;;;;;4956409;28;20986;-77
2023/12/23 12:00:54;;;;;;;2.77;0.90;;;;;;;;;;4965426;28;20943;-77
2023/12/23 12:03:21;;;;;;;2.13;0.80;;;;;;;;;;4973801;28;20552;-76
2023/12/23 12:05:48;;;;;;;0.70;0.60;;;;;;;;;;4974106;28;20563;-76
2023/12/23 12:08:14;;;;;;;0.80;0.70;;;;;;;;;;4974295;28;20452;-78
2023/12/23 12:10:40;;;;;;;0.87;0.70;;;;;;;;;;4962728;28;20443;-76
2023/12/23 12:13:06;;;;;;;0.70;0.60;;;;;;;;;;4970209;28;20420;-76
2023/12/23 12:15:32;;;;;;;0.90;0.80;;;;;;;;;;4974922;28;20958;-77
2023/12/23 12:17:58;;;;;;;0.73;0.63;;;;;;;;;;4973845;28;20423;-75
2023/12/23 12:20:24;;;;;;;0.93;0.70;;;;;;;;;;4972354;28;20482;-77
2023/12/23 12:22:50;;;;;;;0.80;0.70;;;;;;;;;;4973727;28;20459;-76
2023/12/23 12:25:16;;;;;;;0.77;0.67;;;;;;;;;;4974447;28;20508;-76
2023/12/23 12:27:42;;;;;;;0.70;0.60;;;;;;;;;;4972593;28;20454;-76
2023/12/23 12:30:12;;;;;;;0.70;0.60;;;;;;;;;;4962350;28;20461;-76
2023/12/23 12:32:43;;;;;;;0.80;0.70;;;;;;;;;;4977272;28;20465;-78
2023/12/23 12:35:10;;;;;;;0.70;0.60;;;;;;;;;;4998339;28;20423;-78
2023/12/23 12:37:36;;;;;;;1.73;0.70;;;;;;;;;;4995121;28;20552;-77
2023/12/23 12:40:02;;;;;;;0.70;0.60;;;;;;;;;;4976206;28;20415;-78
2023/12/23 12:42:28;;;;;;;0.93;0.83;;;;;;;;;;4976960;28;20515;-78
2023/12/23 12:45:01;;;;;;;0.90;0.80;;;;;;;;;;4978219;28;20656;-78
2023/12/23 12:47:31;;;;;;;0.80;0.80;;;;;;;;;;4973252;28;20808;-77
2023/12/23 12:50:03;;;;;;;0.90;0.80;;;;;;;;;;4973347;28;20813;-75
2023/12/23 12:52:29;;;;;;;0.60;0.60;;;;;;;;;;4972697;28;20440;-75
2023/12/23 12:55:06;;;;;;;1.03;0.93;;;;;;;;;;4972884;28;20420;-75
2023/12/23 12:57:32;;;;;;;1.10;0.80;;;;;;;;;;4972750;28;20423;-76
2023/12/23 12:59:58;;;;;;;0.80;0.70;;;;;;;;;;4973074;28;20780;-74
2023/12/23 13:02:24;;;;;;;0.70;0.60;;;;;;;;;;4972446;28;20550;-75
2023/12/23 13:04:50;;;;;;;1.00;0.70;;;;;;;;;;4972804;28;20471;-76
2023/12/23 13:07:16;;;;;;;0.80;0.70;;;;;;;;;;4973363;28;20412;-77
2023/12/23 13:09:42;;;;;;;2.37;0.70;;;;;;;;;;4968986;28;20454;-77
2023/12/23 13:12:09;;;;;;;2.17;0.83;;;;;;;;;;4972816;28;20450;-75
2023/12/23 13:14:36;;;;;;;0.80;0.70;;;;;;;;;;4973640;28;20458;-75
2023/12/23 13:17:02;;;;;;;0.80;0.70;;;;;;;;;;4971771;28;20856;-75
2023/12/23 13:19:28;;;;;;;2.30;0.70;;;;;;;;;;4973303;28;20790;-76
2023/12/23 13:21:54;;;;;;;0.80;0.70;;;;;;;;;;4972817;28;20448;-75
2023/12/23 13:24:20;;;;;;;2.10;0.80;;;;;;;;;;4971715;28;20816;-75
2023/12/23 13:26:46;;;;;;;0.70;0.60;;;;;;;;;;4973529;28;20420;-77
2023/12/23 13:29:12;;;;;;;0.80;0.70;;;;;;;;;;4974389;28;20487;-75
2023/12/23 13:31:38;;;;;;;0.80;0.70;;;;;;;;;;4976274;28;20440;-78
2023/12/23 13:34:03;;;;;;;0.70;0.60;;;;;;;;;;4980153;28;20416;-77
2023/12/23 13:36:30;;;;;;;0.93;0.83;;;;;;;;;;4964526;28;20428;-73
2023/12/23 13:38:56;;;;;;;0.73;0.63;;;;;;;;;;4971977;28;20510;-74
2023/12/23 13:41:28;;;;;;;0.70;0.70;;;;;;;;;;4968319;28;20966;-77
2023/12/23 13:43:54;;;;;;;0.80;0.70;;;;;;;;;;4976812;28;20427;-77
2023/12/23 13:46:20;;;;;;;1.13;0.80;;;;;;;;;;4977341;28;20846;-78
2023/12/23 13:48:46;;;;;;;0.70;0.60;;;;;;;;;;4977228;28;20455;-76
2023/12/23 13:51:12;;;;;;;0.70;0.60;;;;;;;;;;4978088;28;20523;-75
2023/12/23 13:53:38;;;;;;;0.90;0.70;;;;;;;;;;4978953;28;20895;-77
2023/12/23 13:56:08;;;;;;;0.77;0.67;;;;;;;;;;4981502;28;20443;-77
2023/12/23 13:58:34;;;;;;;0.80;0.70;;;;;;;;;;4980478;28;20412;-77
2023/12/23 14:01:00;;;;;;;1.00;0.90;;;;;;;;;;4985321;28;20452;-77
2023/12/23 14:03:26;;;;;;;0.70;0.60;;;;;;;;;;4979777;28;20802;-76
2023/12/23 14:05:52;;;;;;;1.07;1.00;;;;;;;;;;4971934;28;20471;-77
2023/12/23 14:08:18;;;;;;;0.90;0.80;;;;;;;;;;4975972;28;20854;-76
2023/12/23 14:10:45;;;;;;;0.90;0.80;;;;;;;;;;4975460;28;20436;-76
2023/12/23 14:13:11;;;;;;;1.60;1.23;;;;;;;;;;4979477;28;20768;-79
2023/12/23 14:15:37;;;;;;;0.90;0.80;;;;;;;;;;4979141;28;20438;-80
2023/12/23 14:18:04;;;;;;;1.10;1.00;;;;;;;;;;4971447;28;20460;-74
2023/12/23 14:20:29;;;;;;;12.07;1.60;;;;;;;;;;4972735;28;20448;-77
2023/12/23 14:22:56;;;;;;;0.90;0.77;;;;;;;;;;4974350;28;20432;-75
2023/12/23 14:25:23;;;;;;;2.30;0.70;;;;;;;;;;4972738;28;20949;-76
2023/12/23 14:27:49;;;;;;;0.97;0.87;;;;;;;;;;4975069;28;20432;-76
2023/12/23 14:30:15;;;;;;;1.00;0.90;;;;;;;;;;4975847;28;20765;-76
2023/12/23 14:32:41;;;;;;;1.17;0.80;;;;;;;;;;4974733;28;20607;-76
2023/12/23 14:35:09;;;;;;;1.53;1.03;;;;;;;;;;4974743;28;20467;-76
2023/12/23 14:37:35;;;;;;;0.80;0.70;;;;;;;;;;4976220;28;20785;-76
2023/12/23 14:40:01;;;;;;;1.93;0.70;;;;;;;;;;4974599;28;20829;-76
2023/12/23 14:42:26;;;;;;;2.07;1.00;;;;;;;;;;4975312;28;20467;-75
2023/12/23 14:44:52;;;;;;;0.90;0.80;;;;;;;;;;4965885;28;20515;-76
2023/12/23 14:47:19;;;;;;;1.13;1.00;;;;;;;;;;4956311;28;20445;-76
2023/12/23 14:49:45;;;;;;;0.83;0.73;;;;;;;;;;4955773;28;20405;-76
2023/12/23 14:52:11;;;;;;;0.80;0.70;;;;;;;;;;4956186;28;20841;-75
2023/12/23 14:54:37;;;;;;;1.63;1.20;;;;;;;;;;4955671;28;20416;-76
2023/12/23 14:57:03;;;;;;;1.27;1.20;;;;;;;;;;4973447;28;20737;-75
2023/12/23 14:59:30;;;;;;;1.00;0.90;;;;;;;;;;4975156;28;20494;-75
2023/12/23 15:01:57;;;;;;;1.70;1.60;;;;;;;;;;4974527;28;20786;-75
2023/12/23 15:04:23;;;;;;;1.70;0.90;;;;;;;;;;4974825;28;20459;-76
2023/12/23 15:06:49;;;;;;;1.00;0.90;;;;;;;;;;4963695;28;20424;-76
2023/12/23 15:09:16;;;;;;;1.10;1.00;;;;;;;;;;4958800;29;20409;-76
2023/12/23 15:11:42;;;;;;;1.03;0.90;;;;;;;;;;4957058;29;20437;-76
2023/12/23 15:14:08;;;;;;;1.03;0.80;;;;;;;;;;4958233;28;20420;-75
2023/12/23 15:16:34;;;;;;;0.87;0.77;;;;;;;;;;4956059;28;20504;-76
2023/12/23 15:19:00;;;;;;;1.90;1.10;;;;;;;;;;4974416;28;20420;-76
2023/12/23 15:21:26;;;;;;;1.07;0.80;;;;;;;;;;4975953;28;20431;-77
2023/12/23 15:23:52;;;;;;;0.80;0.80;;;;;;;;;;4975599;28;20446;-76
2023/12/23 15:26:18;;;;;;;1.10;0.90;;;;;;;;;;4974341;28;20416;-76
2023/12/23 15:28:44;;;;;;;0.90;0.80;;;;;;;;;;4973900;28;20412;-76
2023/12/23 15:31:10;;;;;;;0.90;0.80;;;;;;;;;;4955076;29;20491;-76
2023/12/23 15:33:36;;;;;;;0.87;0.73;;;;;;;;;;4956576;29;20421;-76
2023/12/23 15:36:03;;;;;;;0.80;0.70;;;;;;;;;;4964011;29;20417;-75
2023/12/23 15:38:29;;;;;;;0.90;0.80;;;;;;;;;;4955591;28;20421;-75
2023/12/23 15:40:55;;;;;;;0.80;0.70;;;;;;;;;;4962085;28;20435;-73
2023/12/23 15:43:21;;;;;;;1.67;0.70;;;;;;;;;;4974959;28;20448;-73
2023/12/23 15:45:47;;;;;;;2.80;0.97;;;;;;;;;;4974920;28;20455;-75
2023/12/23 15:48:13;;;;;;;0.83;0.80;;;;;;;;;;4974621;28;20415;-77
2023/12/23 15:50:39;;;;;;;0.83;0.70;;;;;;;;;;4975094;28;20522;-77
2023/12/23 15:53:05;;;;;;;1.00;0.90;;;;;;;;;;4973958;28;20431;-77
2023/12/23 15:55:30;;;;;;;1.10;1.00;;;;;;;;;;4955236;29;20416;-77
2023/12/23 15:57:56;;;;;;;2.30;1.20;;;;;;;;;;4969709;28;20415;-74
2023/12/23 16:00:23;;;;;;;1.17;1.00;;;;;;;;;;4992634;28;20419;-76
2023/12/23 16:02:51;;;;;;;1.73;1.13;;;;;;;;;;4970657;28;20451;-76
2023/12/23 16:05:17;;;;;;;1.07;1.00;;;;;;;;;;4978590;28;20464;-78
2023/12/23 16:07:43;;;;;;;2.23;1.20;;;;;;;;;;4980535;28;20442;-77
2023/12/23 16:10:09;;;;;;;1.93;1.10;;;;;;;;;;4978426;28;20412;-77
2023/12/23 16:12:35;;;;;;;3.90;1.30;;;;;;;;;;4967042;28;20487;-75
2023/12/23 16:15:02;;;;;;;4.00;1.13;;;;;;;;;;4974010;28;20772;-75
2023/12/23 16:17:28;;;;;;;0.93;0.83;;;;;;;;;;4972805;28;20423;-75
2023/12/23 16:19:55;;;;;;;1.47;1.07;;;;;;;;;;4974767;28;20486;-76
2023/12/23 16:22:21;;;;;;;1.00;0.80;;;;;;;;;;4975174;28;20515;-76
2023/12/23 16:24:47;;;;;;;0.90;0.80;;;;;;;;;;4971722;28;20620;-77
2023/12/23 16:27:13;;;;;;;1.03;0.90;;;;;;;;;;4977200;28;20412;-77
2023/12/23 16:29:42;;;;;;;1.50;1.30;;;;;;;;;;4975409;28;20783;-74
2023/12/23 16:32:08;;;;;;;1.80;1.10;;;;;;;;;;4976670;28;20439;-77
2023/12/23 16:34:34;;;;;;;1.47;1.27;;;;;;;;;;4977872;28;20424;-77
2023/12/23 16:37:00;;;;;;;1.40;1.30;;;;;;;;;;4974252;28;20427;-75
2023/12/23 16:39:26;;;;;;;1.10;1.00;;;;;;;;;;4973568;28;20498;-75
2023/12/23 16:41:52;;;;;;;3.53;1.07;;;;;;;;;;4971212;28;20502;-76
2023/12/23 16:44:18;;;;;;;3.53;1.40;;;;;;;;;;4973638;28;20994;-75
2023/12/23 16:46:47;;;;;;;0.90;0.80;;;;;;;;;;4972435;28;20455;-75
2023/12/23 16:49:13;;;;;;;1.23;0.83;;;;;;;;;;4973435;28;20937;-76
2023/12/23 16:51:39;;;;;;;1.13;1.00;;;;;;;;;;4968490;28;20449;-76
2023/12/23 16:54:05;;;;;;;1.53;1.13;;;;;;;;;;4973960;28;20423;-77
2023/12/23 16:56:32;;;;;;;2.30;1.03;;;;;;;;;;4969444;28;20416;-77
2023/12/23 16:58:58;;;;;;;0.90;0.83;;;;;;;;;;4972873;28;20424;-76
2023/12/23 17:01:24;;;;;;;2.10;0.90;;;;;;;;;;4960615;28;20456;-76
2023/12/23 17:03:50;;;;;;;1.70;1.00;;;;;;;;;;4983595;28;20420;-78
2023/12/23 17:06:16;;;;;;;3.30;1.07;;;;;;;;;;4981658;28;20522;-78
2023/12/23 17:08:42;;;;;;;1.17;0.90;;;;;;;;;;4984339;28;20427;-78
2023/12/23 17:11:08;;;;;;;0.90;0.80;;;;;;;;;;4959811;28;20891;-77
2023/12/23 17:13:35;;;;;;;1.00;0.90;;;;;;;;;;4968506;28;20785;-76
2023/12/23 17:16:01;;;;;;;1.07;0.90;;;;;;;;;;4975080;28;20899;-77
2023/12/23 17:18:27;;;;;;;1.07;0.77;;;;;;;;;;4989405;28;20447;-75
2023/12/23 17:20:53;;;;;;;1.00;0.90;;;;;;;;;;4969262;28;20977;-76
2023/12/23 17:23:23;;;;;;;1.00;0.90;;;;;;;;;;4972399;28;20793;-77
2023/12/23 17:25:49;;;;;;;2.97;1.00;;;;;;;;;;4970663;28;20468;-78
2023/12/23 17:28:15;;;;;;;1.80;0.83;;;;;;;;;;4981218;28;20958;-76
2023/12/23 17:30:41;;;;;;;2.00;0.90;;;;;;;;;;4968317;28;20450;-77
2023/12/23 17:33:12;;;;;;;2.13;0.90;;;;;;;;;;4972733;28;20417;-78
2023/12/23 17:35:38;;;;;;;2.83;1.00;;;;;;;;;;4966726;28;20433;-78
2023/12/23 17:38:04;;;;;;;0.87;0.77;;;;;;;;;;4969579;28;20434;-78
2023/12/23 17:40:30;;;;;;;1.90;1.10;;;;;;;;;;4976442;28;20514;-77
2023/12/23 17:42:56;;;;;;;1.67;1.10;;;;;;;;;;4969942;28;20416;-77
2023/12/23 17:45:22;;;;;;;1.17;1.10;;;;;;;;;;4976035;28;21245;-78
2023/12/23 17:47:49;;;;;;;2.13;1.40;;;;;;;;;;4971528;28;20941;-78
2023/12/23 17:50:17;;;;;;;1.53;1.30;;;;;;;;;;4973688;28;20408;-78
2023/12/23 17:52:43;;;;;;;1.37;1.10;;;;;;;;;;4967321;28;20417;-78
2023/12/23 17:55:09;;;;;;;2.40;1.20;;;;;;;;;;4968216;28;20934;-77
2023/12/23 17:57:35;;;;;;;1.73;1.47;;;;;;;;;;4969973;28;20423;-77
2023/12/23 18:00:01;;;;;;;1.20;1.10;;;;;;;;;;4969498;28;20424;-77
2023/12/23 18:02:30;;;;;;;1.60;1.30;;;;;;;;;;4968062;28;20515;-81
2023/12/23 18:05:04;;;;;;;1.10;1.10;;;;;;;;;;4970018;28;20467;-79
2023/12/23 18:07:30;;;;;;;2.40;1.73;;;;;;;;;;4963882;28;20516;-75
2023/12/23 18:09:56;;;;;;;1.27;1.20;;;;;;;;;;4974308;28;20486;-77
2023/12/23 18:12:21;;;;;;;1.53;1.43;;;;;;;;;;4975795;28;20431;-76
2023/12/23 18:14:47;;;;;;;5.00;1.30;;;;;;;;;;4974424;28;20427;-76
2023/12/23 18:17:13;;;;;;;1.97;1.30;;;;;;;;;;4974490;28;20455;-76
2023/12/23 18:19:39;;;;;;;2.83;1.37;;;;;;;;;;4975501;28;20430;-76
2023/12/23 18:22:06;;;;;;;3.83;1.80;;;;;;;;;;4975313;28;20447;-76
2023/12/23 18:24:32;;;;;;;3.87;1.73;;;;;;;;;;4975687;28;20558;-77
2023/12/23 18:26:59;;;;;;;3.43;1.40;;;;;;;;;;4975223;28;20438;-78
2023/12/23 18:29:25;;;;;;;1.80;1.20;;;;;;;;;;4975024;28;20450;-77
2023/12/23 18:31:51;;;;;;;1.40;1.40;;;;;;;;;;4972193;28;20462;-78
2023/12/23 18:34:17;;;;;;;4.10;1.50;;;;;;;;;;4974574;28;21154;-78
2023/12/23 18:36:42;;;;;;;2.53;1.33;;;;;;;;;;4975474;28;20700;-76
2023/12/23 18:39:09;;;;;;;1.37;1.30;;;;;;;;;;4974091;28;20412;-76
2023/12/23 18:41:35;;;;;;;2.17;1.23;;;;;;;;;;4974311;28;20951;-78
2023/12/23 18:44:01;;;;;;;1.37;1.30;;;;;;;;;;4975453;28;20556;-77
2023/12/23 18:46:27;;;;;;;1.33;1.20;;;;;;;;;;4975240;28;20475;-77
2023/12/23 18:48:53;;;;;;;1.50;1.13;;;;;;;;;;4975307;28;20423;-76
2023/12/23 18:51:19;;;;;;;1.27;1.10;;;;;;;;;;4975333;28;20443;-77
2023/12/23 18:53:45;;;;;;;3.43;1.30;;;;;;;;;;4974027;28;20424;-77
2023/12/23 18:56:11;;;;;;;5.77;2.60;;;;;;;;;;4974136;28;20426;-77
2023/12/23 18:58:37;;;;;;;2.43;2.00;;;;;;;;;;4967831;28;20428;-77
2023/12/23 19:01:03;;;;;;;10.13;2.67;;;;;;;;;;4973584;28;20877;-76
2023/12/23 19:03:29;;;;;;;5.70;2.40;;;;;;;;;;4974055;28;20416;-77
2023/12/23 19:05:59;;;;;;;4.20;2.20;;;;;;;;;;4975486;28;20489;-76
2023/12/23 19:08:25;;;;;;;2.63;2.00;;;;;;;;;;4975457;28;20507;-76
2023/12/23 19:10:53;;;;;;;3.30;1.80;;;;;;;;;;4975069;28;20431;-77
2023/12/23 19:13:19;;;;;;;1.40;1.30;;;;;;;;;;4974651;28;20431;-76
2023/12/23 19:15:45;;;;;;;3.03;1.37;;;;;;;;;;4973924;28;20448;-77
2023/12/23 19:18:11;;;;;;;2.27;1.20;;;;;;;;;;4974818;28;20416;-78
2023/12/23 19:20:37;;;;;;;1.60;1.50;;;;;;;;;;4975363;28;20440;-78
2023/12/23 19:23:04;;;;;;;1.50;1.27;;;;;;;;;;4967119;28;20427;-77
2023/12/23 19:25:30;;;;;;;0.90;0.90;;;;;;;;;;4974893;28;20542;-77
2023/12/23 19:27:56;;;;;;;2.40;0.90;;;;;;;;;;4971741;28;20447;-76
2023/12/23 19:30:23;;;;;;;3.87;1.10;;;;;;;;;;4978397;28;20423;-74
2023/12/23 19:32:49;;;;;;;2.80;1.70;;;;;;;;;;4976641;28;20416;-75
2023/12/23 19:35:18;;;;;;;10.03;1.47;;;;;;;;;;4978011;28;20970;-75
2023/12/23 19:37:44;;;;;;;2.13;1.17;;;;;;;;;;4976422;28;20461;-75
2023/12/23 19:40:10;;;;;;;2.13;1.30;;;;;;;;;;4978168;28;20787;-75
2023/12/23 19:42:36;;;;;;;1.10;1.00;;;;;;;;;;4977642;28;20502;-75
2023/12/23 19:45:02;;;;;;;1.80;1.33;;;;;;;;;;4976780;28;20471;-76
2023/12/23 19:47:28;;;;;;;1.10;1.00;;;;;;;;;;4978195;28;20970;-76
2023/12/23 19:49:54;;;;;;;1.23;1.13;;;;;;;;;;4979456;28;20465;-75
2023/12/23 19:52:20;;;;;;;1.20;1.10;;;;;;;;;;4976138;28;20463;-75
2023/12/23 19:54:46;;;;;;;1.43;1.10;;;;;;;;;;4972787;28;20432;-75
2023/12/23 19:57:12;;;;;;;1.93;1.00;;;;;;;;;;4970451;28;20428;-75
2023/12/23 19:59:38;;;;;;;4.37;1.30;;;;;;;;;;4977087;28;20515;-75
2023/12/23 20:02:04;;;;;;;1.37;1.00;;;;;;;;;;4977617;28;20462;-76
2023/12/23 20:04:30;;;;;;;1.13;1.03;;;;;;;;;;4975386;28;20925;-75
2023/12/23 20:06:56;;;;;;;1.57;1.00;;;;;;;;;;4975970;28;20447;-75
2023/12/23 20:09:22;;;;;;;1.10;1.00;;;;;;;;;;4973254;28;20447;-76
2023/12/23 20:11:48;;;;;;;3.40;1.63;;;;;;;;;;4973529;28;20436;-76
2023/12/23 20:14:14;;;;;;;2.00;1.20;;;;;;;;;;4964533;28;20451;-75
2023/12/23 20:16:40;;;;;;;3.80;1.50;;;;;;;;;;4972171;28;20423;-75
2023/12/23 20:19:06;;;;;;;1.13;1.00;;;;;;;;;;4974214;28;20416;-75
2023/12/23 20:21:32;;;;;;;1.93;1.27;;;;;;;;;;4973598;28;20435;-75
2023/12/23 20:23:58;;;;;;;1.30;1.20;;;;;;;;;;4973831;28;20420;-75
2023/12/23 20:26:24;;;;;;;1.47;1.20;;;;;;;;;;4972076;28;20471;-75
2023/12/23 20:28:51;;;;;;;2.73;1.73;;;;;;;;;;4972511;28;20427;-75
2023/12/23 20:31:20;;;;;;;3.90;2.40;;;;;;;;;;4973807;28;20899;-75
2023/12/23 20:33:49;;;;;;;2.57;1.90;;;;;;;;;;4972453;28;20435;-76
2023/12/23 20:36:15;;;;;;;3.70;1.30;;;;;;;;;;4972577;28;20420;-75
2023/12/23 20:38:41;;;;;;;1.53;1.50;;;;;;;;;;4973399;28;20532;-75